createdAt,value
2024-04-23T00:02:13.034Z,10.93
2024-04-23T00:05:15.263Z,8.85
2024-04-23T00:08:17.420Z,9.93
2024-04-23T00:11:19.648Z,7.45
2024-04-23T00:14:22.133Z,7.28
2024-04-23T00:17:24.300Z,7.60
2024-04-23T00:20:26.581Z,8.40
2024-04-23T00:23:28.805Z,7.93
2024-04-23T00:26:30.936Z,7.85
2024-04-23T00:29:33.059Z,8.50
2024-04-23T00:32:35.364Z,6.82
2024-04-23T00:35:37.628Z,7.10
2024-04-23T00:38:39.746Z,6.83
2024-04-23T00:41:41.874Z,7.95
2024-04-23T00:44:44.052Z,7.53
2024-04-23T00:47:46.662Z,7.70
2024-04-23T00:50:49.149Z,8.05
2024-04-23T00:53:51.542Z,7.30
2024-04-23T00:56:55.381Z,8.15
2024-04-23T00:59:57.518Z,6.85
2024-04-23T01:02:59.900Z,9.02
2024-04-23T01:06:02.086Z,9.43
2024-04-23T01:09:04.523Z,8.27
2024-04-23T01:12:06.771Z,8.10
2024-04-23T01:15:09.836Z,8.30
2024-04-23T01:18:12.575Z,8.60
2024-04-23T01:21:18.385Z,7.80
2024-04-23T01:24:27.128Z,8.10
2024-04-23T01:27:29.957Z,8.73
2024-04-23T01:30:32.185Z,7.72
2024-04-23T01:33:36.154Z,9.13
2024-04-23T01:36:38.371Z,8.55
2024-04-23T01:39:40.484Z,8.17
2024-04-23T01:42:43.063Z,7.47
2024-04-23T01:45:45.229Z,8.35
2024-04-23T01:48:48.000Z,7.97
2024-04-23T01:51:50.630Z,7.55
2024-04-23T01:54:52.826Z,8.50
2024-04-23T01:57:55.267Z,9.32
2024-04-23T02:00:58.066Z,8.27
2024-04-23T02:04:00.784Z,8.63
2024-04-23T02:07:02.997Z,9.35
2024-04-23T02:10:05.497Z,7.60
2024-04-23T02:13:08.973Z,8.25
2024-04-23T02:16:11.159Z,9.43
2024-04-23T02:19:13.319Z,8.47
2024-04-23T02:22:15.418Z,9.32
2024-04-23T02:25:21.665Z,10.13
2024-04-23T02:28:25.636Z,9.18
2024-04-23T02:31:27.772Z,9.15
2024-04-23T02:34:30.011Z,10.00
2024-04-23T02:37:32.229Z,10.45
2024-04-23T02:40:34.456Z,8.73
2024-04-23T02:43:36.681Z,10.02
2024-04-23T02:46:38.864Z,8.13
2024-04-23T02:49:41.061Z,9.30
2024-04-23T02:52:43.804Z,10.15
2024-04-23T02:55:46.006Z,10.55
2024-04-23T02:58:48.255Z,9.68
2024-04-23T03:01:50.497Z,9.32
2024-04-23T03:04:52.713Z,11.45
2024-04-23T03:07:54.918Z,10.35
2024-04-23T03:10:57.144Z,9.90
2024-04-23T03:13:59.392Z,8.15
2024-04-23T03:17:01.699Z,9.68
2024-04-23T03:20:04.109Z,8.87
2024-04-23T03:23:06.335Z,8.98
2024-04-23T03:26:08.565Z,8.98
2024-04-23T03:29:10.751Z,8.68
2024-04-23T03:32:12.959Z,9.60
2024-04-23T03:35:15.171Z,9.90
2024-04-23T03:38:17.279Z,8.02
2024-04-23T03:41:19.449Z,8.30
2024-04-23T03:44:21.593Z,9.95
2024-04-23T03:47:23.839Z,9.00
2024-04-23T03:50:27.876Z,9.43
2024-04-23T03:53:30.234Z,10.15
2024-04-23T03:56:32.431Z,9.23
2024-04-23T03:59:34.582Z,8.52
2024-04-23T04:02:55.333Z,10.85
2024-04-23T04:06:09.518Z,8.40
2024-04-23T04:09:12.266Z,8.98
2024-04-23T04:12:14.577Z,8.63
2024-04-23T04:15:16.804Z,8.07
2024-04-23T04:18:19.400Z,7.20
2024-04-23T04:21:21.643Z,8.27
2024-04-23T04:24:23.870Z,9.68
2024-04-23T04:27:26.053Z,8.38
2024-04-23T04:30:28.183Z,8.13
2024-04-23T04:33:30.399Z,8.93
2024-04-23T04:36:32.560Z,8.15
2024-04-23T04:39:40.730Z,8.38
2024-04-23T04:42:42.933Z,7.60
2024-04-23T04:45:45.171Z,8.13
2024-04-23T04:48:47.318Z,7.55
2024-04-23T04:51:49.486Z,8.40
2024-04-23T04:54:51.580Z,8.43
2024-04-23T04:57:53.751Z,8.48
2024-04-23T05:00:56.086Z,7.90
2024-04-23T05:03:58.786Z,8.43
2024-04-23T05:07:00.978Z,7.85
2024-04-23T05:10:03.190Z,8.45
2024-04-23T05:13:05.680Z,6.97
2024-04-23T05:16:07.949Z,8.80
2024-04-23T05:19:10.099Z,6.68
2024-04-23T05:22:12.641Z,7.60
2024-04-23T05:25:14.810Z,7.10
2024-04-23T05:28:17.089Z,7.75
2024-04-23T05:31:39.977Z,7.00
2024-04-23T05:34:43.018Z,7.38
2024-04-23T05:37:45.339Z,7.90
2024-04-23T05:40:47.580Z,7.68
2024-04-23T05:43:49.858Z,7.13
2024-04-23T05:46:52.229Z,7.35
2024-04-23T05:50:13.825Z,8.25
2024-04-23T05:53:53.548Z,7.83
2024-04-23T05:57:14.306Z,7.85
2024-04-23T06:00:16.562Z,6.75
2024-04-23T06:03:18.821Z,7.72
2024-04-23T06:06:21.183Z,7.60
2024-04-23T06:09:23.704Z,8.30
2024-04-23T06:12:26.105Z,7.60
2024-04-23T06:15:28.526Z,7.83
2024-04-23T06:18:31.266Z,8.43
2024-04-23T06:21:33.715Z,8.10
2024-04-23T06:24:35.992Z,8.03
2024-04-23T06:27:39.327Z,9.40
2024-04-23T06:30:42.488Z,8.85
2024-04-23T06:33:44.821Z,8.30
2024-04-23T06:36:47.102Z,8.23
2024-04-23T06:39:50.194Z,8.63
2024-04-23T06:42:52.388Z,7.38
2024-04-23T06:45:54.773Z,7.93
2024-04-23T06:48:58.000Z,7.78
2024-04-23T06:52:00.380Z,7.20
2024-04-23T06:55:04.569Z,7.27
2024-04-23T06:58:07.475Z,8.07
2024-04-23T07:01:10.240Z,7.80
2024-04-23T07:04:12.873Z,6.93
2024-04-23T07:07:15.181Z,6.70
2024-04-23T07:10:17.605Z,8.25
2024-04-23T07:13:19.879Z,8.38
2024-04-23T07:16:22.034Z,7.33
2024-04-23T07:19:24.239Z,8.20
2024-04-23T07:22:26.442Z,7.88
2024-04-23T07:25:28.639Z,6.77
2024-04-23T07:28:30.908Z,7.18
2024-04-23T07:31:33.183Z,8.13
2024-04-23T07:34:37.702Z,7.30
2024-04-23T07:37:39.923Z,6.87
2024-04-23T07:40:46.216Z,7.03
2024-04-23T07:43:48.619Z,6.93
2024-04-23T07:46:51.130Z,6.32
2024-04-23T07:49:53.540Z,6.32
2024-04-23T07:52:58.641Z,6.20
2024-04-23T07:56:02.052Z,6.68
2024-04-23T07:59:04.911Z,6.30
2024-04-23T08:02:07.294Z,5.90
2024-04-23T08:05:12.254Z,6.95
2024-04-23T08:08:14.520Z,6.43
2024-04-23T08:11:17.240Z,5.67
2024-04-23T08:14:19.659Z,6.85
2024-04-23T08:17:22.452Z,7.65
2024-04-23T08:20:24.947Z,6.93
2024-04-23T08:23:27.107Z,5.55
2024-04-23T08:26:29.282Z,6.20
2024-04-23T08:29:32.722Z,6.78
2024-04-23T08:32:35.455Z,6.20
2024-04-23T08:35:37.973Z,5.07
2024-04-23T08:38:41.705Z,5.80
2024-04-23T08:41:46.358Z,5.53
2024-04-23T08:44:52.796Z,5.70
2024-04-23T08:47:55.484Z,5.20
2024-04-23T08:50:58.440Z,5.25
2024-04-23T08:54:02.139Z,6.95
2024-04-23T08:57:04.823Z,4.57
2024-04-23T09:00:10.292Z,5.07
2024-04-23T09:03:15.235Z,6.33
2024-04-23T09:06:17.705Z,6.15
2024-04-23T09:09:22.741Z,5.78
2024-04-23T09:12:25.385Z,5.10
2024-04-23T09:15:27.627Z,5.20
2024-04-23T09:18:33.097Z,5.00
2024-04-23T09:21:36.118Z,4.80
2024-04-23T09:24:38.610Z,5.43
2024-04-23T09:27:40.837Z,6.85
2024-04-23T09:30:43.297Z,6.10
2024-04-23T09:33:55.059Z,5.07
2024-04-23T09:36:58.401Z,5.05
2024-04-23T09:40:03.958Z,4.80
2024-04-23T09:43:07.016Z,4.30
2024-04-23T09:46:11.152Z,4.80
2024-04-23T09:49:13.943Z,4.97
2024-04-23T09:52:30.302Z,5.05
2024-04-23T09:55:32.866Z,4.22
2024-04-23T09:58:35.702Z,4.97
2024-04-23T10:01:38.893Z,4.30
2024-04-23T10:04:41.689Z,4.20
2024-04-23T10:07:47.356Z,5.65
2024-04-23T10:10:51.565Z,6.10
2024-04-23T10:14:02.219Z,4.78
2024-04-23T10:17:07.660Z,4.30
2024-04-23T10:20:10.643Z,5.10
2024-04-23T10:23:14.857Z,5.82
2024-04-23T10:26:17.314Z,5.25
2024-04-23T10:29:20.007Z,4.75
2024-04-23T10:32:22.654Z,4.87
2024-04-23T10:35:26.893Z,4.57
2024-04-23T10:38:30.853Z,4.40
2024-04-23T10:41:35.396Z,5.60
2024-04-23T10:44:38.898Z,5.45
2024-04-23T10:47:51.989Z,5.27
2024-04-23T10:50:55.092Z,5.07
2024-04-23T10:53:57.620Z,3.83
2024-04-23T10:57:05.695Z,4.53
2024-04-23T11:00:10.442Z,4.70
2024-04-23T11:03:16.153Z,6.13
2024-04-23T11:06:22.117Z,4.33
2024-04-23T11:09:28.330Z,4.97
2024-04-23T11:12:33.348Z,3.90
2024-04-23T11:15:35.722Z,4.53
2024-04-23T11:18:49.773Z,4.13
2024-04-23T11:21:53.711Z,4.03
2024-04-23T11:24:57.498Z,4.47
2024-04-23T11:28:00.581Z,4.07
2024-04-23T11:31:04.055Z,3.92
2024-04-23T11:34:06.652Z,4.10
2024-04-23T11:37:09.016Z,4.23
2024-04-23T11:40:14.456Z,4.57
2024-04-23T11:43:18.480Z,4.18
2024-04-23T11:46:20.704Z,4.30
2024-04-23T11:49:23.123Z,3.67
2024-04-23T11:52:25.498Z,3.33
2024-04-23T11:55:27.912Z,4.05
2024-04-23T11:58:30.100Z,8.98
2024-04-23T12:01:32.446Z,3.90
2024-04-23T12:04:35.255Z,3.70
2024-04-23T12:07:37.618Z,3.70
2024-04-23T12:10:43.785Z,4.15
2024-04-23T12:13:49.021Z,3.58
2024-04-23T12:16:51.272Z,3.88
2024-04-23T12:19:53.948Z,3.97
2024-04-23T12:23:06.196Z,3.67
2024-04-23T12:26:10.126Z,4.03
2024-04-23T12:29:12.931Z,4.78
2024-04-23T12:32:15.247Z,3.75
2024-04-23T12:35:19.346Z,3.90
2024-04-23T12:38:21.595Z,4.00
2024-04-23T12:41:25.430Z,4.05
2024-04-23T12:44:27.823Z,3.90
2024-04-23T12:47:30.365Z,4.07
2024-04-23T12:50:32.999Z,4.60
2024-04-23T12:53:35.518Z,3.80
2024-04-23T12:56:37.899Z,3.67
2024-04-23T12:59:40.507Z,4.05
2024-04-23T13:02:42.747Z,4.35
2024-04-23T13:05:47.582Z,3.93
2024-04-23T13:08:49.741Z,4.23
2024-04-23T13:11:52.604Z,4.75
2024-04-23T13:14:55.846Z,4.10
2024-04-23T13:17:58.443Z,10.10
2024-04-23T13:21:03.118Z,4.77
2024-04-23T13:24:05.977Z,4.47
2024-04-23T13:27:09.812Z,3.92
2024-04-23T13:30:12.191Z,4.65
2024-04-23T13:33:14.423Z,4.45
2024-04-23T13:36:16.638Z,4.97
2024-04-23T13:39:18.821Z,4.23
2024-04-23T13:42:20.978Z,4.85
2024-04-23T13:45:23.239Z,3.95
2024-04-23T13:48:26.282Z,4.80
2024-04-23T13:51:29.801Z,4.53
2024-04-23T13:54:31.977Z,5.00
2024-04-23T13:57:34.176Z,4.63
2024-04-23T14:00:36.363Z,5.35
2024-04-23T14:03:38.778Z,5.40
2024-04-23T14:06:41.328Z,5.00
2024-04-23T14:09:43.652Z,5.30
2024-04-23T14:12:47.454Z,4.07
2024-04-23T14:15:49.672Z,5.25
2024-04-23T14:18:53.002Z,4.95
2024-04-23T14:21:55.238Z,5.07
2024-04-23T14:24:57.461Z,5.30
2024-04-23T14:27:59.613Z,5.22
2024-04-23T14:31:05.436Z,4.90
2024-04-23T14:34:07.752Z,5.18
2024-04-23T14:37:10.042Z,5.47
2024-04-23T14:40:12.209Z,5.90
2024-04-23T14:43:15.775Z,5.20
2024-04-23T14:46:18.671Z,5.03
2024-04-23T14:49:27.957Z,7.00
2024-04-23T14:52:31.036Z,7.73
2024-04-23T14:55:33.172Z,4.57
2024-04-23T14:58:35.771Z,5.28
2024-04-23T15:01:39.862Z,4.93
2024-04-23T15:04:42.470Z,5.93
2024-04-23T15:07:44.955Z,5.53
2024-04-23T15:10:48.170Z,5.13
2024-04-23T15:13:51.196Z,4.10
2024-04-23T15:16:53.947Z,4.25
2024-04-23T15:19:58.937Z,4.78
2024-04-23T15:23:01.282Z,4.73
2024-04-23T15:26:04.711Z,4.43
2024-04-23T15:29:07.243Z,4.35
2024-04-23T15:32:11.018Z,4.47
2024-04-23T15:35:13.490Z,5.07
2024-04-23T15:38:16.096Z,4.70
2024-04-23T15:41:18.650Z,4.20
2024-04-23T15:44:22.067Z,4.93
2024-04-23T15:47:24.430Z,5.13
2024-04-23T15:50:27.679Z,4.82
2024-04-23T15:53:30.645Z,4.60
2024-04-23T15:56:33.016Z,6.10
2024-04-23T15:59:35.297Z,5.25
2024-04-23T16:02:37.660Z,5.55
2024-04-23T16:05:40.082Z,4.68
2024-04-23T16:08:42.242Z,4.50
2024-04-23T16:11:44.486Z,4.55
2024-04-23T16:14:46.735Z,6.32
2024-04-23T16:17:49.176Z,4.18
2024-04-23T16:20:51.429Z,6.18
2024-04-23T16:23:54.634Z,4.60
2024-04-23T16:26:58.887Z,4.72
2024-04-23T16:30:02.406Z,4.35
2024-04-23T16:33:08.054Z,4.10
2024-04-23T16:36:10.284Z,4.32
2024-04-23T16:39:13.255Z,4.20
2024-04-23T16:42:17.004Z,4.82
2024-04-23T16:45:19.397Z,4.35
2024-04-23T16:48:21.640Z,4.20
2024-04-23T16:51:23.852Z,4.17
2024-04-23T16:54:26.863Z,4.37
2024-04-23T16:57:29.934Z,4.25
2024-04-23T17:00:32.161Z,3.40
2024-04-23T17:03:34.516Z,4.20
2024-04-23T17:06:37.342Z,4.33
2024-04-23T17:09:39.498Z,4.63
2024-04-23T17:12:41.671Z,4.60
2024-04-23T17:15:44.109Z,4.15
2024-04-23T17:18:46.644Z,4.13
2024-04-23T17:21:48.835Z,4.30
2024-04-23T17:24:51.350Z,4.50
2024-04-23T17:27:53.652Z,4.70
2024-04-23T17:30:59.316Z,5.00
2024-04-23T17:34:01.508Z,3.77
2024-04-23T17:37:05.429Z,4.53
2024-04-23T17:40:08.662Z,6.75
2024-04-23T17:43:10.904Z,7.68
2024-04-23T17:46:18.362Z,6.10
2024-04-23T17:49:20.542Z,5.20
2024-04-23T17:52:22.700Z,5.50
2024-04-23T17:55:24.796Z,4.65
2024-04-23T17:58:26.913Z,4.53
2024-04-23T18:01:29.045Z,6.10
2024-04-23T18:04:31.200Z,4.70
2024-04-23T18:07:33.414Z,4.60
2024-04-23T18:10:35.540Z,4.97
2024-04-23T18:13:40.499Z,5.17
2024-04-23T18:16:42.940Z,5.05
2024-04-23T18:19:45.182Z,4.88
2024-04-23T18:22:47.449Z,4.20
2024-04-23T18:25:52.650Z,4.30
2024-04-23T18:28:54.985Z,4.30
2024-04-23T18:31:57.193Z,4.32
2024-04-23T18:34:59.433Z,5.13
2024-04-23T18:38:01.633Z,5.00
2024-04-23T18:41:08.434Z,5.25
2024-04-23T18:44:14.404Z,5.18
2024-04-23T18:47:17.357Z,4.63
2024-04-23T18:50:19.661Z,4.53
2024-04-23T18:53:21.868Z,5.30
2024-04-23T18:56:24.041Z,5.10
2024-04-23T18:59:26.255Z,5.30
2024-04-23T19:02:29.973Z,5.17
2024-04-23T19:05:32.192Z,5.13
2024-04-23T19:08:34.350Z,5.32
2024-04-23T19:11:36.579Z,5.57
2024-04-23T19:14:38.798Z,6.10
2024-04-23T19:17:41.091Z,5.80
2024-04-23T19:20:43.239Z,5.82
2024-04-23T19:23:45.691Z,6.77
2024-04-23T19:26:48.694Z,6.03
2024-04-23T19:29:50.914Z,7.75
2024-04-23T19:32:53.140Z,6.85
2024-04-23T19:35:58.086Z,6.80
2024-04-23T19:39:01.273Z,6.32
2024-04-23T19:42:03.429Z,7.10
2024-04-23T19:45:05.756Z,6.10
2024-04-23T19:48:08.066Z,6.90
2024-04-23T19:51:14.538Z,6.60
2024-04-23T19:54:16.684Z,7.55
2024-04-23T19:57:18.835Z,7.72
2024-04-23T20:00:25.420Z,8.60
2024-04-23T20:03:27.727Z,9.00
2024-04-23T20:06:29.909Z,9.40
2024-04-23T20:09:36.896Z,10.75
2024-04-23T20:12:39.011Z,8.85
2024-04-23T20:15:41.170Z,9.55
2024-04-23T20:18:43.385Z,8.75
2024-04-23T20:21:46.220Z,9.00
2024-04-23T20:24:48.369Z,10.05
2024-04-23T20:27:51.157Z,8.38
2024-04-23T20:30:53.315Z,8.30
2024-04-23T20:33:55.558Z,10.65
2024-04-23T20:36:57.732Z,9.73
2024-04-23T20:39:59.856Z,9.65
2024-04-23T20:43:01.960Z,9.63
2024-04-23T20:46:04.969Z,9.90
2024-04-23T20:49:07.808Z,10.23
2024-04-23T20:52:10.298Z,10.07
2024-04-23T20:55:12.611Z,10.25
2024-04-23T20:58:14.835Z,10.15
2024-04-23T21:01:16.992Z,10.40
2024-04-23T21:04:19.263Z,9.07
2024-04-23T21:07:21.653Z,9.85
2024-04-23T21:10:24.256Z,9.25
2024-04-23T21:13:29.697Z,9.50
2024-04-23T21:16:33.638Z,11.35
2024-04-23T21:19:35.835Z,9.23
2024-04-23T21:22:37.949Z,10.38
2024-04-23T21:25:40.190Z,9.40
2024-04-23T21:28:42.554Z,10.40
2024-04-23T21:31:44.894Z,9.82
2024-04-23T21:34:47.123Z,10.47
2024-04-23T21:37:49.234Z,10.25
2024-04-23T21:40:51.420Z,9.77
2024-04-23T21:43:53.638Z,10.25
2024-04-23T21:46:55.809Z,10.20
2024-04-23T21:49:58.054Z,10.65
2024-04-23T21:53:02.034Z,9.45
2024-04-23T21:56:05.090Z,10.17
2024-04-23T21:59:07.299Z,9.82
2024-04-23T22:02:09.630Z,10.23
2024-04-23T22:05:11.907Z,10.07
2024-04-23T22:08:14.162Z,10.57
2024-04-23T22:11:17.102Z,10.13
2024-04-23T22:14:19.367Z,11.02
2024-04-23T22:17:21.914Z,11.45
2024-04-23T22:20:24.154Z,11.55
2024-04-23T22:23:26.346Z,11.70
2024-04-23T22:26:28.547Z,12.23
2024-04-23T22:29:30.716Z,12.18
2024-04-23T22:32:35.169Z,11.43
2024-04-23T22:35:37.350Z,10.65
2024-04-23T22:38:39.553Z,11.13
2024-04-23T22:41:41.735Z,12.43
2024-04-23T22:44:43.814Z,11.15
2024-04-23T22:47:46.038Z,12.57
2024-04-23T22:50:48.161Z,10.90
2024-04-23T22:53:50.288Z,11.93
2024-04-23T22:56:52.424Z,11.93
2024-04-23T22:59:54.555Z,10.93
2024-04-23T23:02:56.734Z,12.45
2024-04-23T23:05:58.832Z,13.43
2024-04-23T23:09:01.022Z,11.52
2024-04-23T23:12:03.531Z,13.68
2024-04-23T23:15:05.868Z,11.55
2024-04-23T23:18:08.003Z,11.02
2024-04-23T23:21:10.759Z,10.87
2024-04-23T23:24:13.239Z,11.05
2024-04-23T23:27:15.424Z,11.95
2024-04-23T23:30:17.591Z,12.65
2024-04-23T23:33:19.910Z,11.55
2024-04-23T23:36:22.386Z,11.95
2024-04-23T23:39:24.580Z,11.93
2024-04-23T23:42:26.736Z,11.80
2024-04-23T23:45:29.218Z,11.48
2024-04-23T23:48:31.598Z,11.77
2024-04-23T23:51:33.724Z,12.07
2024-04-23T23:54:35.921Z,11.38
2024-04-23T23:57:38.086Z,11.88
